BAW59Z LPPT-EGLL
Flight info
| Callsign | BAW59Z |
|---|---|
| Flight time | 2h 5m |
| Altitude | 36000 |
| Route | IXIDA1N IXIDA DCT RIVRO DCT TOSDI DCT ZMR DCT NUBLO DCT RONSI DCT DELOG DCT DEGEX DCT OZNOH DCT JSY DCT REVTU/N0439F340 UP87 ROXOG ROXOG1H |
| Aircraft | A320/M-SDE3FGIJ1KRWXY/SB1 |
Departure
| Time | 2026-05-07 14:11 |
|---|---|
| Airport | Lisbon Humberto Delgado Airport (LPPT) |
Arrival
| Time | 2026-05-07 16:17 |
|---|---|
| Airport | London Heathrow Airport (EGLL) |
| Time | Latitude | Longitude | Altitude | Speed | Heading |
|---|---|---|---|---|---|
| 2026-05-07 13:42 | 38.78088 | -9.12855 | 328 ft | 0 kts | 303° |
| 2026-05-07 13:56 | 38.78085 | -9.12850 | 331 ft | 3 kts | 303° |
| 2026-05-07 13:57 | 38.78072 | -9.12819 | 326 ft | 4 kts | 285° |
| 2026-05-07 13:57 | 38.78070 | -9.12788 | 327 ft | 4 kts | 245° |
| 2026-05-07 13:57 | 38.78080 | -9.12771 | 328 ft | 1 kts | 213° |
| 2026-05-07 13:57 | 38.78082 | -9.12770 | 328 ft | 0 kts | 213° |
| 2026-05-07 14:01 | 38.78071 | -9.12779 | 331 ft | 4 kts | 213° |
| 2026-05-07 14:02 | 38.78038 | -9.12807 | 327 ft | 7 kts | 214° |
| 2026-05-07 14:02 | 38.77999 | -9.12840 | 330 ft | 8 kts | 214° |
| 2026-05-07 14:02 | 38.77942 | -9.12888 | 329 ft | 11 kts | 213° |
| 2026-05-07 14:02 | 38.77866 | -9.12950 | 329 ft | 14 kts | 212° |
| 2026-05-07 14:03 | 38.77783 | -9.13039 | 332 ft | 16 kts | 239° |
| 2026-05-07 14:03 | 38.77758 | -9.13161 | 337 ft | 11 kts | 258° |
| 2026-05-07 14:03 | 38.77752 | -9.13200 | 334 ft | 0 kts | 259° |
| 2026-05-07 14:03 | 38.77750 | -9.13209 | 335 ft | 0 kts | 259° |
| 2026-05-07 14:04 | 38.77749 | -9.13220 | 336 ft | 3 kts | 259° |
| 2026-05-07 14:05 | 38.77742 | -9.13265 | 337 ft | 7 kts | 260° |
| 2026-05-07 14:05 | 38.77729 | -9.13332 | 340 ft | 7 kts | 241° |
| 2026-05-07 14:05 | 38.77697 | -9.13364 | 351 ft | 7 kts | 206° |
| 2026-05-07 14:05 | 38.77636 | -9.13398 | 353 ft | 12 kts | 203° |
| 2026-05-07 14:06 | 38.77548 | -9.13447 | 351 ft | 15 kts | 204° |
| 2026-05-07 14:06 | 38.77458 | -9.13523 | 350 ft | 16 kts | 212° |
| 2026-05-07 14:06 | 38.77345 | -9.13515 | 347 ft | 18 kts | 168° |
| 2026-05-07 14:06 | 38.77279 | -9.13603 | 350 ft | 8 kts | 257° |
| 2026-05-07 14:07 | 38.77267 | -9.13674 | 351 ft | 9 kts | 257° |
| 2026-05-07 14:07 | 38.77254 | -9.13755 | 352 ft | 10 kts | 259° |
| 2026-05-07 14:07 | 38.77229 | -9.13844 | 359 ft | 11 kts | 218° |
| 2026-05-07 14:07 | 38.77193 | -9.13865 | 363 ft | 6 kts | 203° |
| 2026-05-07 14:08 | 38.77128 | -9.13901 | 357 ft | 14 kts | 202° |
| 2026-05-07 14:08 | 38.77055 | -9.13939 | 359 ft | 11 kts | 203° |
| 2026-05-07 14:08 | 38.76970 | -9.13985 | 350 ft | 19 kts | 203° |
| 2026-05-07 14:08 | 38.76884 | -9.14031 | 347 ft | 13 kts | 203° |
| 2026-05-07 14:09 | 38.76809 | -9.14070 | 349 ft | 12 kts | 203° |
| 2026-05-07 14:09 | 38.76725 | -9.14116 | 353 ft | 10 kts | 202° |
| 2026-05-07 14:09 | 38.76650 | -9.14155 | 343 ft | 13 kts | 202° |
| 2026-05-07 14:09 | 38.76595 | -9.14237 | 337 ft | 15 kts | 282° |
| 2026-05-07 14:10 | 38.76635 | -9.14358 | 333 ft | 8 kts | 292° |
| 2026-05-07 14:10 | 38.76674 | -9.14374 | 332 ft | 0 kts | 24° |
| 2026-05-07 14:10 | 38.76729 | -9.14344 | 336 ft | 31 kts | 23° |
| 2026-05-07 14:11 | 38.77139 | -9.14125 | 359 ft | 93 kts | 23° |
| 2026-05-07 14:11 | 38.77890 | -9.13723 | 365 ft | 139 kts | 23° |
| 2026-05-07 14:11 | 38.78895 | -9.13187 | 485 ft | 165 kts | 18° |
| 2026-05-07 14:11 | 38.79916 | -9.12642 | 1132 ft | 161 kts | 19° |
| 2026-05-07 14:12 | 38.80974 | -9.12063 | 1602 ft | 172 kts | 17° |
| 2026-05-07 14:12 | 38.82116 | -9.11328 | 1827 ft | 197 kts | 26° |
| 2026-05-07 14:12 | 38.83360 | -9.10363 | 2094 ft | 221 kts | 28° |
| 2026-05-07 14:12 | 38.84744 | -9.09284 | 2477 ft | 245 kts | 29° |
| 2026-05-07 14:13 | 38.86265 | -9.08097 | 2929 ft | 265 kts | 30° |
| 2026-05-07 14:13 | 38.87866 | -9.06849 | 3695 ft | 272 kts | 30° |
| 2026-05-07 14:13 | 38.89479 | -9.05560 | 4570 ft | 275 kts | 36° |
| 2026-05-07 14:13 | 38.90951 | -9.03958 | 5413 ft | 280 kts | 43° |
| 2026-05-07 14:14 | 38.92398 | -9.02260 | 6277 ft | 283 kts | 44° |
| 2026-05-07 14:14 | 38.93857 | -9.00545 | 7110 ft | 286 kts | 44° |
| 2026-05-07 14:14 | 38.95335 | -8.98811 | 7897 ft | 290 kts | 44° |
| 2026-05-07 14:14 | 38.96820 | -8.97084 | 8707 ft | 293 kts | 44° |
| 2026-05-07 14:15 | 38.98359 | -8.95286 | 9512 ft | 297 kts | 44° |
| 2026-05-07 14:15 | 38.99881 | -8.93507 | 10192 ft | 304 kts | 44° |
| 2026-05-07 14:15 | 39.01508 | -8.91601 | 10367 ft | 328 kts | 44° |
| 2026-05-07 14:15 | 39.03254 | -8.89558 | 10519 ft | 350 kts | 44° |
| 2026-05-07 14:16 | 39.05079 | -8.87419 | 11018 ft | 358 kts | 44° |
| 2026-05-07 14:16 | 39.06932 | -8.85247 | 11648 ft | 363 kts | 43° |
| 2026-05-07 14:16 | 39.08815 | -8.83053 | 12320 ft | 366 kts | 43° |
| 2026-05-07 14:16 | 39.10711 | -8.80836 | 13002 ft | 370 kts | 43° |
| 2026-05-07 14:17 | 39.12614 | -8.78596 | 13691 ft | 373 kts | 43° |
| 2026-05-07 14:17 | 39.14541 | -8.76340 | 14333 ft | 375 kts | 42° |
| 2026-05-07 14:17 | 39.16480 | -8.74060 | 14900 ft | 379 kts | 44° |
| 2026-05-07 14:17 | 39.18286 | -8.71553 | 15467 ft | 383 kts | 48° |
| 2026-05-07 14:18 | 39.20046 | -8.68954 | 16017 ft | 387 kts | 48° |
| 2026-05-07 14:18 | 39.21823 | -8.66338 | 16611 ft | 389 kts | 47° |
| 2026-05-07 14:18 | 39.23616 | -8.63697 | 17159 ft | 393 kts | 47° |
| 2026-05-07 14:18 | 39.25423 | -8.61042 | 17739 ft | 395 kts | 47° |
| 2026-05-07 14:19 | 39.27245 | -8.58366 | 18285 ft | 399 kts | 47° |
| 2026-05-07 14:19 | 39.29084 | -8.55674 | 18793 ft | 401 kts | 47° |
| 2026-05-07 14:19 | 39.30934 | -8.52950 | 19299 ft | 405 kts | 47° |
| 2026-05-07 14:19 | 39.32797 | -8.50196 | 19801 ft | 409 kts | 47° |
| 2026-05-07 14:20 | 39.34679 | -8.47421 | 20303 ft | 413 kts | 46° |
| 2026-05-07 14:20 | 39.35940 | -8.45572 | 20636 ft | 415 kts | 46° |
| 2026-05-07 14:20 | 39.38510 | -8.41797 | 21274 ft | 421 kts | 46° |
| 2026-05-07 14:20 | 39.40444 | -8.38936 | 21743 ft | 425 kts | 46° |
| 2026-05-07 14:21 | 39.42397 | -8.36047 | 22203 ft | 429 kts | 46° |
| 2026-05-07 14:21 | 39.44369 | -8.33132 | 22663 ft | 432 kts | 45° |
| 2026-05-07 14:21 | 39.46326 | -8.30234 | 23170 ft | 435 kts | 45° |
| 2026-05-07 14:21 | 39.48325 | -8.27283 | 23609 ft | 438 kts | 45° |
| 2026-05-07 14:22 | 39.50335 | -8.24302 | 23999 ft | 441 kts | 45° |
| 2026-05-07 14:22 | 39.52357 | -8.21287 | 24407 ft | 445 kts | 45° |
| 2026-05-07 14:22 | 39.54390 | -8.18257 | 24860 ft | 446 kts | 45° |
| 2026-05-07 14:22 | 39.56436 | -8.15221 | 25267 ft | 449 kts | 44° |
| 2026-05-07 14:23 | 39.58494 | -8.12165 | 25660 ft | 452 kts | 45° |
| 2026-05-07 14:23 | 39.59864 | -8.10122 | 25914 ft | 454 kts | 44° |
| 2026-05-07 14:23 | 39.61942 | -8.07025 | 26301 ft | 457 kts | 45° |
| 2026-05-07 14:23 | 39.64032 | -8.03891 | 26679 ft | 461 kts | 45° |
| 2026-05-07 14:24 | 39.66148 | -8.00765 | 27045 ft | 462 kts | 41° |
| 2026-05-07 14:24 | 39.68426 | -7.97795 | 27407 ft | 465 kts | 40° |
| 2026-05-07 14:24 | 39.70717 | -7.94830 | 27874 ft | 465 kts | 40° |
| 2026-05-07 14:24 | 39.72999 | -7.91858 | 28422 ft | 464 kts | 40° |
| 2026-05-07 14:25 | 39.75276 | -7.88881 | 28917 ft | 464 kts | 40° |
| 2026-05-07 14:25 | 39.77544 | -7.85903 | 29459 ft | 464 kts | 40° |
| 2026-05-07 14:25 | 39.79808 | -7.82915 | 29979 ft | 463 kts | 40° |
| 2026-05-07 14:25 | 39.82065 | -7.79931 | 30378 ft | 463 kts | 39° |
| 2026-05-07 14:26 | 39.84324 | -7.76965 | 30797 ft | 462 kts | 40° |
| 2026-05-07 14:26 | 39.86581 | -7.73979 | 31223 ft | 462 kts | 39° |
| 2026-05-07 14:26 | 39.88840 | -7.70992 | 31633 ft | 463 kts | 39° |
| 2026-05-07 14:26 | 39.91106 | -7.67998 | 31879 ft | 464 kts | 39° |
| 2026-05-07 14:27 | 39.93374 | -7.65001 | 32083 ft | 464 kts | 39° |
| 2026-05-07 14:27 | 39.95634 | -7.61999 | 32289 ft | 464 kts | 39° |
| 2026-05-07 14:27 | 39.97892 | -7.58992 | 32513 ft | 464 kts | 39° |
| 2026-05-07 14:27 | 40.00120 | -7.56037 | 32713 ft | 463 kts | 38° |
| 2026-05-07 14:28 | 40.02377 | -7.53044 | 32942 ft | 462 kts | 38° |
| 2026-05-07 14:28 | 40.04622 | -7.50057 | 33159 ft | 461 kts | 38° |
| 2026-05-07 14:28 | 40.06866 | -7.47071 | 33374 ft | 461 kts | 38° |
| 2026-05-07 14:28 | 40.09111 | -7.44075 | 33590 ft | 461 kts | 38° |
| 2026-05-07 14:29 | 40.11351 | -7.41082 | 33797 ft | 461 kts | 38° |
| 2026-05-07 14:29 | 40.13593 | -7.38092 | 34000 ft | 461 kts | 38° |
| 2026-05-07 14:29 | 40.15833 | -7.35098 | 34188 ft | 461 kts | 38° |
| 2026-05-07 14:29 | 40.18068 | -7.32099 | 34377 ft | 460 kts | 39° |
| 2026-05-07 14:30 | 40.20301 | -7.29098 | 34567 ft | 460 kts | 39° |
| 2026-05-07 14:30 | 40.22537 | -7.26098 | 34760 ft | 460 kts | 39° |
| 2026-05-07 14:30 | 40.24773 | -7.23105 | 34958 ft | 460 kts | 39° |
| 2026-05-07 14:30 | 40.27005 | -7.20106 | 35182 ft | 459 kts | 38° |
| 2026-05-07 14:31 | 40.29230 | -7.17115 | 35374 ft | 458 kts | 39° |
| 2026-05-07 14:31 | 40.31449 | -7.14122 | 35578 ft | 458 kts | 39° |
| 2026-05-07 14:31 | 40.33667 | -7.11131 | 35770 ft | 459 kts | 39° |
| 2026-05-07 14:32 | 40.38193 | -7.05039 | 35863 ft | 472 kts | 39° |
| 2026-05-07 14:32 | 40.42774 | -6.98823 | 35869 ft | 476 kts | 39° |
| 2026-05-07 14:33 | 40.47384 | -6.92572 | 35863 ft | 477 kts | 39° |
| 2026-05-07 14:33 | 40.51995 | -6.86306 | 35865 ft | 477 kts | 39° |
| 2026-05-07 14:34 | 40.56600 | -6.80040 | 35863 ft | 476 kts | 39° |
| 2026-05-07 14:34 | 40.61197 | -6.73761 | 35866 ft | 476 kts | 39° |
| 2026-05-07 14:35 | 40.66021 | -6.67869 | 35877 ft | 472 kts | 34° |
| 2026-05-07 14:35 | 40.70943 | -6.62124 | 35880 ft | 473 kts | 35° |
| 2026-05-07 14:36 | 40.75855 | -6.56363 | 35892 ft | 473 kts | 35° |
| 2026-05-07 14:36 | 40.80755 | -6.50579 | 35895 ft | 473 kts | 35° |
| 2026-05-07 14:37 | 40.85659 | -6.44784 | 35906 ft | 473 kts | 36° |
| 2026-05-07 14:37 | 40.92989 | -6.36112 | 35904 ft | 471 kts | 36° |
| 2026-05-07 14:38 | 40.97856 | -6.30336 | 35914 ft | 470 kts | 36° |
| 2026-05-07 14:38 | 41.02705 | -6.24555 | 35904 ft | 469 kts | 36° |
| 2026-05-07 14:39 | 41.07552 | -6.18784 | 35901 ft | 468 kts | 36° |
| 2026-05-07 14:39 | 41.12382 | -6.12989 | 35898 ft | 468 kts | 36° |
| 2026-05-07 14:40 | 41.17215 | -6.07208 | 35910 ft | 468 kts | 36° |
| 2026-05-07 14:40 | 41.22047 | -6.01427 | 35921 ft | 467 kts | 37° |
| 2026-05-07 14:41 | 41.26855 | -5.95633 | 35909 ft | 466 kts | 37° |
| 2026-05-07 14:41 | 41.31662 | -5.89858 | 35908 ft | 466 kts | 37° |
| 2026-05-07 14:42 | 41.36423 | -5.84105 | 35897 ft | 465 kts | 37° |
| 2026-05-07 14:42 | 41.41216 | -5.78305 | 35904 ft | 465 kts | 38° |
| 2026-05-07 14:43 | 41.46002 | -5.72503 | 35908 ft | 465 kts | 38° |
| 2026-05-07 14:43 | 41.50791 | -5.66709 | 35902 ft | 464 kts | 36° |
| 2026-05-07 14:44 | 41.56150 | -5.62153 | 35898 ft | 453 kts | 19° |
| 2026-05-07 14:44 | 41.61972 | -5.58938 | 35897 ft | 453 kts | 18° |
| 2026-05-07 14:45 | 41.67780 | -5.55659 | 35910 ft | 453 kts | 19° |
| 2026-05-07 14:45 | 41.73589 | -5.52374 | 35903 ft | 453 kts | 19° |
| 2026-05-07 14:46 | 41.79397 | -5.49080 | 35896 ft | 453 kts | 19° |
| 2026-05-07 14:46 | 41.85211 | -5.45782 | 35900 ft | 454 kts | 19° |
| 2026-05-07 14:47 | 41.91026 | -5.42486 | 35902 ft | 454 kts | 19° |
| 2026-05-07 14:47 | 41.96841 | -5.39177 | 35900 ft | 454 kts | 19° |
| 2026-05-07 14:48 | 42.02649 | -5.35850 | 35897 ft | 454 kts | 19° |
| 2026-05-07 14:48 | 42.08466 | -5.32538 | 35922 ft | 454 kts | 20° |
| 2026-05-07 14:49 | 42.14277 | -5.29191 | 35900 ft | 455 kts | 20° |
| 2026-05-07 14:49 | 42.20071 | -5.25871 | 35891 ft | 455 kts | 20° |
| 2026-05-07 14:50 | 42.25903 | -5.22494 | 35885 ft | 456 kts | 20° |
| 2026-05-07 14:50 | 42.31748 | -5.19134 | 35901 ft | 457 kts | 20° |
| 2026-05-07 14:51 | 42.37634 | -5.15736 | 35895 ft | 457 kts | 20° |
| 2026-05-07 14:51 | 42.43453 | -5.12376 | 35894 ft | 458 kts | 20° |
| 2026-05-07 14:52 | 42.49307 | -5.08986 | 35892 ft | 458 kts | 20° |
| 2026-05-07 14:52 | 42.55163 | -5.05568 | 35901 ft | 458 kts | 21° |
| 2026-05-07 14:53 | 42.61022 | -5.02159 | 35909 ft | 458 kts | 20° |
| 2026-05-07 14:53 | 42.66879 | -4.98738 | 35901 ft | 458 kts | 20° |
| 2026-05-07 14:54 | 42.72733 | -4.95308 | 35901 ft | 458 kts | 20° |
| 2026-05-07 14:54 | 42.78599 | -4.91872 | 35887 ft | 459 kts | 21° |
| 2026-05-07 14:55 | 42.84478 | -4.88411 | 35883 ft | 461 kts | 21° |
| 2026-05-07 14:55 | 42.90371 | -4.84940 | 35888 ft | 462 kts | 21° |
| 2026-05-07 14:56 | 42.96279 | -4.81466 | 35900 ft | 463 kts | 21° |
| 2026-05-07 14:56 | 43.02196 | -4.77972 | 35903 ft | 463 kts | 21° |
| 2026-05-07 14:57 | 43.08100 | -4.74455 | 35904 ft | 463 kts | 21° |
| 2026-05-07 14:57 | 43.14019 | -4.70949 | 35921 ft | 464 kts | 21° |
| 2026-05-07 14:58 | 43.19940 | -4.67432 | 35915 ft | 464 kts | 21° |
| 2026-05-07 14:58 | 43.25855 | -4.63910 | 35909 ft | 463 kts | 21° |
| 2026-05-07 14:59 | 43.31767 | -4.60388 | 35909 ft | 463 kts | 21° |
| 2026-05-07 14:59 | 43.37674 | -4.56841 | 35913 ft | 463 kts | 22° |
| 2026-05-07 15:00 | 43.43586 | -4.53295 | 35898 ft | 464 kts | 22° |
| 2026-05-07 15:00 | 43.49517 | -4.49734 | 35892 ft | 466 kts | 22° |
| 2026-05-07 15:01 | 43.55461 | -4.46144 | 35911 ft | 467 kts | 22° |
| 2026-05-07 15:01 | 43.61419 | -4.42540 | 35905 ft | 468 kts | 21° |
| 2026-05-07 15:02 | 43.67346 | -4.38952 | 35904 ft | 468 kts | 21° |
| 2026-05-07 15:02 | 43.73319 | -4.35329 | 35908 ft | 469 kts | 22° |
| 2026-05-07 15:03 | 43.79292 | -4.31702 | 35911 ft | 469 kts | 22° |
| 2026-05-07 15:03 | 43.85272 | -4.28056 | 35909 ft | 470 kts | 22° |
| 2026-05-07 15:04 | 43.91260 | -4.24403 | 35917 ft | 470 kts | 22° |
| 2026-05-07 15:04 | 43.97247 | -4.20742 | 35929 ft | 470 kts | 22° |
| 2026-05-07 15:05 | 44.03238 | -4.17074 | 35926 ft | 471 kts | 22° |
| 2026-05-07 15:05 | 44.09232 | -4.13379 | 35932 ft | 471 kts | 22° |
| 2026-05-07 15:06 | 44.15225 | -4.09692 | 35932 ft | 471 kts | 22° |
| 2026-05-07 15:06 | 44.21221 | -4.05992 | 35950 ft | 471 kts | 22° |
| 2026-05-07 15:07 | 44.27211 | -4.02276 | 35950 ft | 471 kts | 22° |
| 2026-05-07 15:07 | 44.33280 | -3.98859 | 35949 ft | 469 kts | 13° |
| 2026-05-07 15:08 | 44.39668 | -3.97189 | 35962 ft | 467 kts | 7° |
| 2026-05-07 15:08 | 44.46083 | -3.95737 | 35959 ft | 467 kts | 7° |
| 2026-05-07 15:09 | 44.52492 | -3.94261 | 35957 ft | 467 kts | 7° |
| 2026-05-07 15:09 | 44.58854 | -3.92800 | 35972 ft | 466 kts | 7° |
| 2026-05-07 15:10 | 44.65255 | -3.91323 | 35966 ft | 466 kts | 7° |
| 2026-05-07 15:10 | 44.71660 | -3.89835 | 35967 ft | 466 kts | 7° |
| 2026-05-07 15:11 | 44.78055 | -3.88343 | 35966 ft | 466 kts | 7° |
| 2026-05-07 15:11 | 44.83414 | -3.87087 | 35968 ft | 466 kts | 7° |
| 2026-05-07 15:12 | 44.89812 | -3.85606 | 35966 ft | 466 kts | 7° |
| 2026-05-07 15:12 | 44.96212 | -3.84125 | 35979 ft | 466 kts | 7° |
| 2026-05-07 15:13 | 45.02565 | -3.82635 | 35976 ft | 466 kts | 7° |
| 2026-05-07 15:13 | 45.08969 | -3.81113 | 35961 ft | 467 kts | 7° |
| 2026-05-07 15:14 | 45.15390 | -3.79607 | 35964 ft | 468 kts | 7° |
| 2026-05-07 15:14 | 45.21815 | -3.78111 | 35966 ft | 468 kts | 7° |
| 2026-05-07 15:15 | 45.28237 | -3.76592 | 35974 ft | 468 kts | 7° |
| 2026-05-07 15:15 | 45.34665 | -3.75062 | 35988 ft | 468 kts | 8° |
| 2026-05-07 15:16 | 45.41097 | -3.73541 | 35990 ft | 468 kts | 7° |
| 2026-05-07 15:16 | 45.47523 | -3.72020 | 35988 ft | 468 kts | 7° |
| 2026-05-07 15:17 | 45.53945 | -3.70476 | 35993 ft | 468 kts | 8° |
| 2026-05-07 15:17 | 45.60368 | -3.68924 | 35989 ft | 468 kts | 7° |
| 2026-05-07 15:18 | 45.66793 | -3.67408 | 35990 ft | 468 kts | 8° |
| 2026-05-07 15:18 | 45.73221 | -3.65870 | 35999 ft | 468 kts | 7° |
| 2026-05-07 15:19 | 45.79643 | -3.64330 | 35996 ft | 468 kts | 8° |
| 2026-05-07 15:19 | 45.86068 | -3.62770 | 35995 ft | 468 kts | 7° |
| 2026-05-07 15:20 | 45.92489 | -3.61220 | 36008 ft | 468 kts | 8° |
| 2026-05-07 15:20 | 45.98914 | -3.59662 | 36009 ft | 468 kts | 8° |
| 2026-05-07 15:21 | 46.05332 | -3.58108 | 36008 ft | 468 kts | 8° |
| 2026-05-07 15:21 | 46.11756 | -3.56545 | 36002 ft | 468 kts | 8° |
| 2026-05-07 15:22 | 46.18186 | -3.54979 | 35999 ft | 469 kts | 8° |
| 2026-05-07 15:22 | 46.24620 | -3.53400 | 36002 ft | 469 kts | 8° |
| 2026-05-07 15:23 | 46.31055 | -3.51809 | 36000 ft | 469 kts | 8° |
| 2026-05-07 15:23 | 46.37496 | -3.50224 | 36008 ft | 469 kts | 8° |
| 2026-05-07 15:24 | 46.43929 | -3.48642 | 36008 ft | 469 kts | 8° |
| 2026-05-07 15:24 | 46.50316 | -3.47072 | 36006 ft | 469 kts | 8° |
| 2026-05-07 15:25 | 46.56749 | -3.45485 | 36013 ft | 468 kts | 8° |
| 2026-05-07 15:25 | 46.63171 | -3.43884 | 36010 ft | 468 kts | 8° |
| 2026-05-07 15:26 | 46.69595 | -3.42291 | 36017 ft | 468 kts | 8° |
| 2026-05-07 15:26 | 46.76024 | -3.40698 | 36011 ft | 468 kts | 8° |
| 2026-05-07 15:27 | 46.82445 | -3.39090 | 36015 ft | 468 kts | 8° |
| 2026-05-07 15:27 | 46.88870 | -3.37483 | 36014 ft | 468 kts | 8° |
| 2026-05-07 15:28 | 46.95297 | -3.35859 | 36023 ft | 468 kts | 8° |
| 2026-05-07 15:28 | 47.01715 | -3.34250 | 36019 ft | 468 kts | 8° |
| 2026-05-07 15:29 | 47.08050 | -3.32652 | 36019 ft | 468 kts | 8° |
| 2026-05-07 15:29 | 47.14463 | -3.31025 | 36018 ft | 468 kts | 8° |
| 2026-05-07 15:30 | 47.20880 | -3.29405 | 36011 ft | 468 kts | 8° |
| 2026-05-07 15:30 | 47.27295 | -3.27768 | 36011 ft | 468 kts | 8° |
| 2026-05-07 15:31 | 47.33712 | -3.26128 | 36011 ft | 468 kts | 8° |
| 2026-05-07 15:31 | 47.40138 | -3.24488 | 36020 ft | 468 kts | 8° |
| 2026-05-07 15:32 | 47.46558 | -3.22840 | 36019 ft | 468 kts | 8° |
| 2026-05-07 15:32 | 47.52934 | -3.21210 | 36017 ft | 468 kts | 8° |
| 2026-05-07 15:33 | 47.59357 | -3.19563 | 36021 ft | 468 kts | 8° |
| 2026-05-07 15:33 | 47.65775 | -3.17911 | 36017 ft | 468 kts | 8° |
| 2026-05-07 15:34 | 47.72179 | -3.16155 | 36013 ft | 469 kts | 12° |
| 2026-05-07 15:34 | 47.78198 | -3.12443 | 36021 ft | 471 kts | 30° |
| 2026-05-07 15:35 | 47.83833 | -3.07465 | 36012 ft | 471 kts | 30° |
| 2026-05-07 15:35 | 47.89488 | -3.02518 | 36003 ft | 471 kts | 30° |
| 2026-05-07 15:36 | 47.95139 | -2.97563 | 35998 ft | 471 kts | 30° |
| 2026-05-07 15:36 | 48.00786 | -2.92597 | 35995 ft | 471 kts | 30° |
| 2026-05-07 15:37 | 48.06445 | -2.87639 | 35993 ft | 471 kts | 30° |
| 2026-05-07 15:37 | 48.12092 | -2.82653 | 35995 ft | 471 kts | 30° |
| 2026-05-07 15:38 | 48.17749 | -2.77640 | 35994 ft | 471 kts | 30° |
| 2026-05-07 15:38 | 48.23383 | -2.72643 | 36006 ft | 471 kts | 30° |
| 2026-05-07 15:39 | 48.29029 | -2.67633 | 36004 ft | 471 kts | 30° |
| 2026-05-07 15:39 | 48.34663 | -2.62593 | 35995 ft | 471 kts | 30° |
| 2026-05-07 15:40 | 48.40301 | -2.57564 | 35976 ft | 471 kts | 30° |
| 2026-05-07 15:40 | 48.45958 | -2.52607 | 35987 ft | 470 kts | 25° |
| 2026-05-07 15:41 | 48.51982 | -2.48777 | 36008 ft | 470 kts | 21° |
| 2026-05-07 15:41 | 48.57989 | -2.45058 | 36011 ft | 470 kts | 21° |
| 2026-05-07 15:42 | 48.64025 | -2.41301 | 36017 ft | 469 kts | 21° |
| 2026-05-07 15:42 | 48.70060 | -2.37534 | 36004 ft | 469 kts | 21° |
| 2026-05-07 15:43 | 48.76099 | -2.33745 | 36017 ft | 469 kts | 21° |
| 2026-05-07 15:43 | 48.82027 | -2.30033 | 36016 ft | 469 kts | 21° |
| 2026-05-07 15:44 | 48.87624 | -2.26506 | 36019 ft | 469 kts | 21° |
| 2026-05-07 15:44 | 48.93647 | -2.22709 | 36019 ft | 469 kts | 21° |
| 2026-05-07 15:45 | 48.99680 | -2.18902 | 36013 ft | 469 kts | 21° |
| 2026-05-07 15:45 | 49.05703 | -2.15089 | 36020 ft | 469 kts | 22° |
| 2026-05-07 15:46 | 49.14718 | -2.09323 | 36014 ft | 468 kts | 21° |
| 2026-05-07 15:47 | 49.20731 | -2.05493 | 36020 ft | 468 kts | 22° |
| 2026-05-07 15:47 | 49.26517 | -2.00916 | 36027 ft | 469 kts | 28° |
| 2026-05-07 15:48 | 49.32217 | -1.96059 | 36032 ft | 469 kts | 28° |
| 2026-05-07 15:48 | 49.37922 | -1.91216 | 36027 ft | 469 kts | 28° |
| 2026-05-07 15:49 | 49.43625 | -1.86347 | 36039 ft | 469 kts | 28° |
| 2026-05-07 15:49 | 49.49325 | -1.81474 | 36033 ft | 469 kts | 28° |
| 2026-05-07 15:50 | 49.55028 | -1.76589 | 36042 ft | 469 kts | 28° |
| 2026-05-07 15:50 | 49.61031 | -1.72836 | 36041 ft | 466 kts | 11° |
| 2026-05-07 15:51 | 49.67442 | -1.71863 | 36043 ft | 463 kts | 0° |
| 2026-05-07 15:51 | 49.73879 | -1.71375 | 36055 ft | 463 kts | 1° |
| 2026-05-07 15:52 | 49.80241 | -1.70831 | 36046 ft | 463 kts | 1° |
| 2026-05-07 15:52 | 49.82865 | -1.70609 | 35902 ft | 463 kts | 1° |
| 2026-05-07 15:52 | 49.85885 | -1.70347 | 35665 ft | 461 kts | 1° |
| 2026-05-07 15:52 | 49.89127 | -1.70078 | 35410 ft | 460 kts | 1° |
| 2026-05-07 15:53 | 49.92268 | -1.69814 | 35064 ft | 459 kts | 1° |
| 2026-05-07 15:53 | 49.95339 | -1.69549 | 34324 ft | 464 kts | 1° |
| 2026-05-07 15:53 | 49.98510 | -1.69231 | 33574 ft | 467 kts | 5° |
| 2026-05-07 15:53 | 50.01598 | -1.68357 | 32855 ft | 469 kts | 13° |
| 2026-05-07 15:54 | 50.04592 | -1.66969 | 32184 ft | 469 kts | 16° |
| 2026-05-07 15:54 | 50.07628 | -1.65492 | 31697 ft | 465 kts | 16° |
| 2026-05-07 15:54 | 50.10663 | -1.63993 | 31163 ft | 461 kts | 16° |
| 2026-05-07 15:54 | 50.13710 | -1.62518 | 30636 ft | 456 kts | 16° |
| 2026-05-07 15:55 | 50.16729 | -1.61055 | 30128 ft | 452 kts | 16° |
| 2026-05-07 15:55 | 50.19713 | -1.59606 | 29559 ft | 448 kts | 16° |
| 2026-05-07 15:55 | 50.22671 | -1.58169 | 29059 ft | 442 kts | 16° |
| 2026-05-07 15:55 | 50.25591 | -1.56743 | 28552 ft | 437 kts | 16° |
| 2026-05-07 15:56 | 50.28481 | -1.55330 | 28041 ft | 433 kts | 16° |
| 2026-05-07 15:56 | 50.31344 | -1.53928 | 27520 ft | 429 kts | 16° |
| 2026-05-07 15:56 | 50.34185 | -1.52546 | 27011 ft | 426 kts | 16° |
| 2026-05-07 15:56 | 50.37001 | -1.51161 | 26493 ft | 423 kts | 16° |
| 2026-05-07 15:57 | 50.39800 | -1.49780 | 25979 ft | 421 kts | 16° |
| 2026-05-07 15:57 | 50.42583 | -1.48409 | 25470 ft | 419 kts | 16° |
| 2026-05-07 15:57 | 50.44455 | -1.47489 | 25117 ft | 417 kts | 16° |
| 2026-05-07 15:57 | 50.48110 | -1.45681 | 24428 ft | 414 kts | 16° |
| 2026-05-07 15:58 | 50.49930 | -1.44788 | 24087 ft | 413 kts | 16° |
| 2026-05-07 15:58 | 50.52670 | -1.43428 | 23560 ft | 412 kts | 18° |
| 2026-05-07 15:58 | 50.55290 | -1.41631 | 22989 ft | 411 kts | 27° |
| 2026-05-07 15:58 | 50.57788 | -1.39500 | 22500 ft | 407 kts | 28° |
| 2026-05-07 15:59 | 50.60260 | -1.37357 | 21987 ft | 404 kts | 28° |
| 2026-05-07 15:59 | 50.62716 | -1.35238 | 21471 ft | 402 kts | 27° |
| 2026-05-07 15:59 | 50.65165 | -1.33128 | 20958 ft | 399 kts | 27° |
| 2026-05-07 15:59 | 50.67595 | -1.31032 | 20432 ft | 397 kts | 27° |
| 2026-05-07 16:00 | 50.70012 | -1.28950 | 19927 ft | 395 kts | 27° |
| 2026-05-07 16:00 | 50.72418 | -1.26868 | 19421 ft | 393 kts | 27° |
| 2026-05-07 16:00 | 50.74808 | -1.24808 | 18908 ft | 391 kts | 27° |
| 2026-05-07 16:00 | 50.77167 | -1.22683 | 18386 ft | 389 kts | 31° |
| 2026-05-07 16:01 | 50.79424 | -1.20346 | 17835 ft | 387 kts | 33° |
| 2026-05-07 16:01 | 50.81655 | -1.18010 | 17325 ft | 383 kts | 32° |
| 2026-05-07 16:01 | 50.83875 | -1.15715 | 16821 ft | 379 kts | 32° |
| 2026-05-07 16:01 | 50.86076 | -1.13446 | 16332 ft | 376 kts | 33° |
| 2026-05-07 16:02 | 50.88255 | -1.11194 | 15846 ft | 372 kts | 33° |
| 2026-05-07 16:02 | 50.90415 | -1.08963 | 15356 ft | 370 kts | 33° |
| 2026-05-07 16:02 | 50.92561 | -1.06744 | 14863 ft | 367 kts | 33° |
| 2026-05-07 16:02 | 50.94685 | -1.04535 | 14388 ft | 364 kts | 33° |
| 2026-05-07 16:03 | 50.96799 | -1.02333 | 13878 ft | 363 kts | 33° |
| 2026-05-07 16:03 | 50.98900 | -1.00155 | 13369 ft | 359 kts | 33° |
| 2026-05-07 16:03 | 51.00867 | -0.97757 | 12946 ft | 354 kts | 44° |
| 2026-05-07 16:03 | 51.02536 | -0.94940 | 12618 ft | 347 kts | 49° |
| 2026-05-07 16:04 | 51.04133 | -0.92095 | 12273 ft | 343 kts | 49° |
| 2026-05-07 16:04 | 51.05702 | -0.89283 | 11954 ft | 337 kts | 49° |
| 2026-05-07 16:04 | 51.07245 | -0.86519 | 11622 ft | 332 kts | 49° |
| 2026-05-07 16:04 | 51.08768 | -0.83793 | 11314 ft | 328 kts | 49° |
| 2026-05-07 16:05 | 51.10277 | -0.81103 | 10995 ft | 324 kts | 49° |
| 2026-05-07 16:05 | 51.11769 | -0.78442 | 10677 ft | 320 kts | 49° |
| 2026-05-07 16:05 | 51.13241 | -0.75809 | 10371 ft | 316 kts | 49° |
| 2026-05-07 16:05 | 51.14682 | -0.73232 | 10066 ft | 313 kts | 49° |
| 2026-05-07 16:06 | 51.16114 | -0.70663 | 9854 ft | 306 kts | 49° |
| 2026-05-07 16:06 | 51.17518 | -0.68148 | 9576 ft | 302 kts | 49° |
| 2026-05-07 16:06 | 51.18903 | -0.65660 | 9353 ft | 296 kts | 49° |
| 2026-05-07 16:06 | 51.20237 | -0.63262 | 9217 ft | 280 kts | 49° |
| 2026-05-07 16:07 | 51.21493 | -0.61010 | 8984 ft | 267 kts | 49° |
| 2026-05-07 16:07 | 51.22711 | -0.58820 | 8549 ft | 263 kts | 49° |
| 2026-05-07 16:07 | 51.23918 | -0.56642 | 8110 ft | 259 kts | 49° |
| 2026-05-07 16:07 | 51.25091 | -0.54519 | 7835 ft | 252 kts | 49° |
| 2026-05-07 16:08 | 51.26255 | -0.52440 | 7594 ft | 251 kts | 45° |
| 2026-05-07 16:08 | 51.27694 | -0.50914 | 7337 ft | 249 kts | 19° |
| 2026-05-07 16:08 | 51.29349 | -0.50568 | 7125 ft | 245 kts | 352° |
| 2026-05-07 16:08 | 51.30957 | -0.51444 | 7061 ft | 243 kts | 327° |
| 2026-05-07 16:09 | 51.32149 | -0.53284 | 7053 ft | 243 kts | 301° |
| 2026-05-07 16:09 | 51.32814 | -0.55777 | 7059 ft | 243 kts | 287° |
| 2026-05-07 16:09 | 51.33329 | -0.58357 | 7057 ft | 243 kts | 287° |
| 2026-05-07 16:09 | 51.33839 | -0.60894 | 7053 ft | 243 kts | 287° |
| 2026-05-07 16:10 | 51.34371 | -0.63493 | 7047 ft | 243 kts | 287° |
| 2026-05-07 16:10 | 51.34885 | -0.66028 | 7035 ft | 243 kts | 286° |
| 2026-05-07 16:10 | 51.35398 | -0.68672 | 6726 ft | 246 kts | 286° |
| 2026-05-07 16:10 | 51.35889 | -0.71203 | 6613 ft | 238 kts | 287° |
| 2026-05-07 16:11 | 51.36374 | -0.73697 | 6506 ft | 231 kts | 286° |
| 2026-05-07 16:11 | 51.36915 | -0.76055 | 6390 ft | 222 kts | 300° |
| 2026-05-07 16:11 | 51.37931 | -0.77821 | 6290 ft | 213 kts | 327° |
| 2026-05-07 16:11 | 51.39275 | -0.78655 | 6183 ft | 204 kts | 352° |
| 2026-05-07 16:12 | 51.40649 | -0.78786 | 5963 ft | 196 kts | 358° |
| 2026-05-07 16:12 | 51.42017 | -0.78847 | 5608 ft | 196 kts | 358° |
| 2026-05-07 16:12 | 51.43384 | -0.78850 | 5151 ft | 200 kts | 8° |
| 2026-05-07 16:12 | 51.44657 | -0.77983 | 4638 ft | 199 kts | 30° |
| 2026-05-07 16:13 | 51.45847 | -0.76855 | 4118 ft | 198 kts | 31° |
| 2026-05-07 16:13 | 51.46889 | -0.75449 | 3590 ft | 197 kts | 54° |
| 2026-05-07 16:13 | 51.47461 | -0.73508 | 3202 ft | 189 kts | 77° |
| 2026-05-07 16:13 | 51.47625 | -0.71486 | 2937 ft | 177 kts | 90° |
| 2026-05-07 16:14 | 51.47642 | -0.69560 | 2741 ft | 171 kts | 91° |
| 2026-05-07 16:14 | 51.47654 | -0.67671 | 2483 ft | 168 kts | 91° |
| 2026-05-07 16:14 | 51.47664 | -0.65797 | 2253 ft | 168 kts | 92° |
| 2026-05-07 16:14 | 51.47675 | -0.63918 | 2026 ft | 168 kts | 92° |
| 2026-05-07 16:15 | 51.47685 | -0.62088 | 1796 ft | 167 kts | 91° |
| 2026-05-07 16:15 | 51.47694 | -0.60221 | 1574 ft | 167 kts | 91° |
| 2026-05-07 16:15 | 51.47704 | -0.58368 | 1347 ft | 163 kts | 91° |
| 2026-05-07 16:15 | 51.47713 | -0.56624 | 1123 ft | 152 kts | 91° |
| 2026-05-07 16:16 | 51.47721 | -0.54966 | 919 ft | 146 kts | 92° |
| 2026-05-07 16:16 | 51.47728 | -0.53368 | 729 ft | 141 kts | 91° |
| 2026-05-07 16:16 | 51.47731 | -0.51817 | 531 ft | 137 kts | 90° |
| 2026-05-07 16:16 | 51.47740 | -0.50299 | 342 ft | 136 kts | 89° |
| 2026-05-07 16:17 | 51.47750 | -0.48782 | 173 ft | 135 kts | 90° |
| 2026-05-07 16:17 | 51.47751 | -0.47331 | 86 ft | 121 kts | 90° |
| 2026-05-07 16:17 | 51.47757 | -0.46459 | 89 ft | 36 kts | 89° |
| 2026-05-07 16:17 | 51.47732 | -0.46182 | 89 ft | 23 kts | 132° |
| 2026-05-07 16:18 | 51.47626 | -0.46077 | 90 ft | 13 kts | 187° |
| 2026-05-07 16:18 | 51.47594 | -0.46208 | 86 ft | 15 kts | 269° |
| 2026-05-07 16:18 | 51.47592 | -0.46390 | 86 ft | 18 kts | 269° |
| 2026-05-07 16:18 | 51.47592 | -0.46601 | 86 ft | 20 kts | 270° |
| 2026-05-07 16:19 | 51.47586 | -0.46839 | 86 ft | 23 kts | 263° |
| 2026-05-07 16:19 | 51.47582 | -0.47106 | 90 ft | 25 kts | 269° |
| 2026-05-07 16:19 | 51.47581 | -0.47400 | 88 ft | 28 kts | 269° |
| 2026-05-07 16:19 | 51.47580 | -0.47678 | 90 ft | 20 kts | 270° |
| 2026-05-07 16:20 | 51.47580 | -0.47911 | 90 ft | 22 kts | 270° |
| 2026-05-07 16:20 | 51.47579 | -0.48170 | 89 ft | 24 kts | 270° |
| 2026-05-07 16:20 | 51.47579 | -0.48398 | 88 ft | 14 kts | 267° |
| 2026-05-07 16:20 | 51.47503 | -0.48475 | 86 ft | 16 kts | 180° |
| 2026-05-07 16:21 | 51.47378 | -0.48474 | 86 ft | 20 kts | 180° |
| 2026-05-07 16:21 | 51.47234 | -0.48473 | 86 ft | 22 kts | 180° |
| 2026-05-07 16:21 | 51.47126 | -0.48472 | 88 ft | 13 kts | 180° |
| 2026-05-07 16:21 | 51.47026 | -0.48472 | 88 ft | 15 kts | 180° |
| 2026-05-07 16:22 | 51.46919 | -0.48471 | 89 ft | 11 kts | 179° |
| 2026-05-07 16:22 | 51.46877 | -0.48517 | 86 ft | 3 kts | 271° |
| 2026-05-07 16:22 | 51.46877 | -0.48539 | 86 ft | 2 kts | 270° |
| 2026-05-07 16:22 | 51.46886 | -0.48563 | 86 ft | 2 kts | 317° |
| 2026-05-07 16:23 | 51.46901 | -0.48571 | 88 ft | 2 kts | 347° |
| 2026-05-07 16:23 | 51.46918 | -0.48572 | 86 ft | 3 kts | 359° |
| 2026-05-07 16:23 | 51.46931 | -0.48573 | 88 ft | 0 kts | 359° |